createdAt,value
2023-07-06T00:01:02.467Z,5.03
2023-07-06T00:03:29.461Z,3.13
2023-07-06T00:05:56.186Z,4.37
2023-07-06T00:08:22.814Z,5.00
2023-07-06T00:10:50.792Z,3.80
2023-07-06T00:13:18.276Z,3.37
2023-07-06T00:15:45.242Z,4.10
2023-07-06T00:18:11.748Z,5.50
2023-07-06T00:20:39.130Z,3.37
2023-07-06T00:23:06.818Z,3.13
2023-07-06T00:25:34.916Z,4.10
2023-07-06T00:28:03.572Z,3.70
2023-07-06T00:30:56.144Z,4.07
2023-07-06T00:33:24.548Z,4.57
2023-07-06T00:35:51.338Z,6.40
2023-07-06T00:38:23.371Z,6.13
2023-07-06T00:40:57.483Z,5.37
2023-07-06T00:43:30.587Z,6.00
2023-07-06T00:45:59.475Z,8.00
2023-07-06T00:48:34.913Z,5.57
2023-07-06T00:51:10.662Z,6.23
2023-07-06T00:53:40.255Z,5.90
2023-07-06T00:56:07.853Z,6.80
2023-07-06T00:58:38.227Z,8.10
2023-07-06T01:01:07.057Z,5.03
2023-07-06T01:03:45.041Z,3.87
2023-07-06T01:06:27.586Z,4.80
2023-07-06T01:08:54.465Z,6.00
2023-07-06T01:11:21.952Z,5.93
2023-07-06T01:13:50.083Z,6.57
2023-07-06T01:16:19.797Z,4.23
2023-07-06T01:19:09.498Z,5.87
2023-07-06T01:22:03.508Z,6.67
2023-07-06T01:25:04.028Z,5.90
2023-07-06T01:27:46.067Z,6.47
2023-07-06T01:30:15.462Z,6.70
2023-07-06T01:32:49.525Z,4.03
2023-07-06T01:35:21.148Z,4.67
2023-07-06T01:37:47.668Z,8.63
2023-07-06T01:40:14.203Z,5.27
2023-07-06T01:42:41.896Z,4.43
2023-07-06T01:45:11.053Z,7.40
2023-07-06T01:47:42.092Z,7.60
2023-07-06T01:50:10.516Z,5.10
2023-07-06T01:53:08.884Z,4.77
2023-07-06T01:55:44.334Z,7.03
2023-07-06T01:58:30.647Z,3.77
2023-07-06T02:01:02.506Z,5.83
2023-07-06T02:03:30.262Z,5.80
2023-07-06T02:05:56.960Z,5.00
2023-07-06T02:08:25.064Z,5.00
2023-07-06T02:10:51.582Z,5.83
2023-07-06T02:13:18.999Z,7.53
2023-07-06T02:15:46.601Z,5.30
2023-07-06T02:18:13.386Z,4.67
2023-07-06T02:20:40.878Z,4.47
2023-07-06T02:23:09.584Z,5.47
2023-07-06T02:25:36.389Z,10.57
2023-07-06T02:28:04.221Z,8.03
2023-07-06T02:30:30.806Z,4.93
2023-07-06T02:32:57.473Z,4.77
2023-07-06T02:35:24.076Z,5.93
2023-07-06T02:37:50.886Z,6.07
2023-07-06T02:40:18.407Z,6.07
2023-07-06T02:42:44.949Z,6.63
2023-07-06T02:45:11.749Z,6.07
2023-07-06T02:47:38.685Z,4.20
2023-07-06T02:50:06.044Z,12.53
2023-07-06T02:52:32.596Z,4.27
2023-07-06T02:54:59.253Z,7.47
2023-07-06T02:57:25.794Z,3.80
2023-07-06T02:59:52.334Z,6.90
2023-07-06T03:02:19.998Z,8.20
2023-07-06T03:04:46.536Z,5.00
2023-07-06T03:07:13.088Z,4.63
2023-07-06T03:09:39.595Z,7.00
2023-07-06T03:12:06.988Z,4.83
2023-07-06T03:14:34.219Z,4.83
2023-07-06T03:17:01.164Z,5.20
2023-07-06T03:19:27.847Z,9.80
2023-07-06T03:21:59.779Z,17.20
2023-07-06T03:24:27.182Z,7.60
2023-07-06T03:26:53.786Z,22.10
2023-07-06T03:29:21.405Z,33.00
2023-07-06T03:31:48.248Z,20.67
2023-07-06T03:34:14.765Z,11.70
2023-07-06T03:36:41.692Z,29.87
2023-07-06T03:39:12.749Z,10.50
2023-07-06T03:41:40.204Z,4.97
2023-07-06T03:44:07.371Z,7.83
2023-07-06T03:46:35.711Z,8.83
2023-07-06T03:49:06.289Z,8.33
2023-07-06T03:51:33.132Z,8.70
2023-07-06T03:54:00.067Z,7.13
2023-07-06T03:56:28.677Z,8.70
2023-07-06T03:58:57.792Z,11.77
2023-07-06T04:01:25.850Z,8.87
2023-07-06T04:03:53.747Z,7.60
2023-07-06T04:06:20.449Z,8.43
2023-07-06T04:08:46.936Z,7.33
2023-07-06T04:11:13.470Z,6.53
2023-07-06T04:13:41.774Z,7.77
2023-07-06T04:16:17.194Z,9.40
2023-07-06T04:18:45.692Z,5.90
2023-07-06T04:21:19.485Z,6.93
2023-07-06T04:23:49.380Z,6.00
2023-07-06T04:26:17.400Z,6.60
2023-07-06T04:28:44.174Z,6.83
2023-07-06T04:31:11.708Z,4.87
2023-07-06T04:33:38.354Z,6.37
2023-07-06T04:36:05.073Z,6.03
2023-07-06T04:38:31.563Z,7.33
2023-07-06T04:40:58.659Z,7.40
2023-07-06T04:43:27.809Z,12.90
2023-07-06T04:45:57.034Z,7.53
2023-07-06T04:48:25.938Z,6.43
2023-07-06T04:50:56.025Z,7.57
2023-07-06T04:53:24.272Z,8.23
2023-07-06T04:55:51.847Z,5.30
2023-07-06T04:58:18.972Z,5.93
2023-07-06T05:00:46.919Z,4.73
2023-07-06T05:03:14.099Z,6.13
2023-07-06T05:05:44.604Z,7.47
2023-07-06T05:08:16.113Z,6.50
2023-07-06T05:10:44.951Z,5.47
2023-07-06T05:13:11.446Z,5.40
2023-07-06T05:15:37.967Z,7.20
2023-07-06T05:18:05.017Z,6.83
2023-07-06T05:20:32.413Z,4.97
2023-07-06T05:22:59.974Z,6.53
2023-07-06T05:25:27.597Z,9.13
2023-07-06T05:27:54.319Z,10.20
2023-07-06T05:30:22.451Z,5.37
2023-07-06T05:32:50.561Z,6.10
2023-07-06T05:35:17.649Z,5.73
2023-07-06T05:37:44.209Z,9.97
2023-07-06T05:40:11.506Z,5.23
2023-07-06T05:42:38.036Z,5.67
2023-07-06T05:45:05.489Z,5.00
2023-07-06T05:47:32.042Z,5.80
2023-07-06T05:49:58.629Z,5.23
2023-07-06T05:52:25.158Z,5.70
2023-07-06T05:54:51.661Z,8.03
2023-07-06T05:57:20.703Z,5.43
2023-07-06T05:59:52.037Z,4.73
2023-07-06T06:02:21.771Z,9.07
2023-07-06T06:04:49.345Z,7.30
2023-07-06T06:07:16.327Z,4.20
2023-07-06T06:09:42.863Z,5.50
2023-07-06T06:12:19.108Z,4.80
2023-07-06T06:14:49.262Z,7.40
2023-07-06T06:17:16.495Z,5.50
2023-07-06T06:19:43.460Z,5.90
2023-07-06T06:22:10.392Z,9.50
2023-07-06T06:24:36.932Z,5.43
2023-07-06T06:27:05.487Z,9.67
2023-07-06T06:29:33.615Z,7.97
2023-07-06T06:32:01.230Z,4.83
2023-07-06T06:34:27.899Z,5.17
2023-07-06T06:36:55.026Z,6.10
2023-07-06T06:39:21.588Z,6.70
2023-07-06T06:41:48.370Z,5.30
2023-07-06T06:44:17.859Z,4.90
2023-07-06T06:46:46.504Z,7.90
2023-07-06T06:49:13.432Z,8.43
2023-07-06T06:51:40.294Z,5.23
2023-07-06T06:54:06.854Z,7.77
2023-07-06T06:56:33.925Z,5.80
2023-07-06T06:59:00.444Z,6.63
2023-07-06T07:01:26.996Z,5.43
2023-07-06T07:03:53.556Z,4.90
2023-07-06T07:06:23.165Z,7.07
2023-07-06T07:08:52.792Z,5.43
2023-07-06T07:11:24.508Z,3.77
2023-07-06T07:13:53.367Z,4.23
2023-07-06T07:16:20.567Z,4.83
2023-07-06T07:18:47.756Z,6.27
2023-07-06T07:21:15.267Z,9.20
2023-07-06T07:23:48.644Z,5.77
2023-07-06T07:26:17.750Z,6.60
2023-07-06T07:28:45.018Z,5.90
2023-07-06T07:31:14.349Z,7.10
2023-07-06T07:33:44.415Z,6.07
2023-07-06T07:36:13.052Z,5.60
2023-07-06T07:38:39.871Z,8.37
2023-07-06T07:41:07.960Z,6.83
2023-07-06T07:43:36.649Z,6.07
2023-07-06T07:46:06.223Z,5.97
2023-07-06T07:48:35.130Z,6.73
2023-07-06T07:51:04.466Z,6.63
2023-07-06T07:53:33.700Z,5.47
2023-07-06T07:56:00.487Z,5.33
2023-07-06T07:58:27.411Z,5.00
2023-07-06T08:00:58.246Z,4.60
2023-07-06T08:03:25.678Z,6.10
2023-07-06T08:05:54.317Z,4.63
2023-07-06T08:08:23.666Z,4.63
2023-07-06T08:10:51.658Z,4.47
2023-07-06T08:13:18.934Z,4.20
2023-07-06T08:15:48.356Z,6.90
2023-07-06T08:18:16.613Z,7.17
2023-07-06T08:21:29.060Z,7.60
2023-07-06T08:23:48.476Z,3.50
2023-07-06T08:26:15.072Z,7.47
2023-07-06T08:28:41.883Z,6.83
2023-07-06T08:31:13.438Z,7.87
2023-07-06T08:33:40.361Z,4.00
2023-07-06T08:36:08.540Z,4.97
2023-07-06T08:38:37.420Z,3.70
2023-07-06T08:41:11.737Z,3.80
2023-07-06T08:43:39.203Z,4.30
2023-07-06T08:46:06.425Z,3.47
2023-07-06T08:48:35.847Z,3.77
2023-07-06T08:51:12.843Z,4.37
2023-07-06T08:53:44.969Z,3.30
2023-07-06T08:56:12.687Z,2.90
2023-07-06T08:58:42.929Z,3.40
2023-07-06T09:01:12.438Z,3.33
2023-07-06T09:03:43.061Z,3.40
2023-07-06T09:06:12.452Z,4.17
2023-07-06T09:08:42.136Z,2.70
2023-07-06T09:11:21.347Z,3.67
2023-07-06T09:13:55.979Z,3.27
2023-07-06T09:16:24.362Z,3.90
2023-07-06T09:18:53.861Z,2.70
2023-07-06T09:21:26.455Z,3.30
2023-07-06T09:23:53.747Z,3.80
2023-07-06T09:26:32.652Z,4.73
2023-07-06T09:29:20.536Z,3.20
2023-07-06T09:31:48.301Z,2.83
2023-07-06T09:34:29.821Z,2.50
2023-07-06T09:36:56.767Z,3.70
2023-07-06T09:39:25.036Z,3.20
2023-07-06T09:41:52.544Z,2.90
2023-07-06T09:44:37.256Z,2.97
2023-07-06T09:47:14.431Z,3.43
2023-07-06T09:49:53.217Z,4.00
2023-07-06T09:52:20.585Z,3.27
2023-07-06T09:54:57.662Z,2.63
2023-07-06T09:57:26.072Z,4.03
2023-07-06T09:59:53.751Z,2.83
2023-07-06T10:02:25.631Z,2.87
2023-07-06T10:05:14.145Z,2.27
2023-07-06T10:07:59.149Z,6.53
2023-07-06T10:10:39.673Z,4.33
2023-07-06T10:13:37.204Z,2.37
2023-07-06T10:16:37.826Z,3.07
2023-07-06T10:19:30.789Z,2.60
2023-07-06T10:22:28.162Z,5.33
2023-07-06T10:25:20.104Z,2.80
2023-07-06T10:27:54.368Z,4.17
2023-07-06T10:30:33.679Z,5.77
2023-07-06T10:33:03.756Z,3.37
2023-07-06T10:35:37.990Z,2.93
2023-07-06T10:38:08.022Z,2.70
2023-07-06T10:40:36.276Z,3.10
2023-07-06T10:43:15.062Z,2.53
2023-07-06T10:45:44.667Z,5.23
2023-07-06T10:48:32.190Z,4.50
2023-07-06T10:51:05.287Z,3.10
2023-07-06T10:53:36.705Z,3.07
2023-07-06T10:56:03.099Z,3.97
2023-07-06T10:58:35.083Z,2.90
2023-07-06T11:01:08.493Z,2.90
2023-07-06T11:03:35.143Z,4.60
2023-07-06T11:06:12.079Z,3.10
2023-07-06T11:09:08.803Z,3.53
2023-07-06T11:11:44.545Z,3.33
2023-07-06T11:14:19.558Z,3.30
2023-07-06T11:16:56.589Z,4.00
2023-07-06T11:19:34.781Z,3.10
2023-07-06T11:22:05.765Z,3.60
2023-07-06T11:24:38.107Z,2.47
2023-07-06T11:27:24.288Z,3.70
2023-07-06T11:29:55.029Z,2.40
2023-07-06T11:32:38.935Z,2.93
2023-07-06T11:35:33.321Z,4.33
2023-07-06T11:38:20.904Z,6.10
2023-07-06T11:41:12.872Z,3.37
2023-07-06T11:43:51.698Z,4.10
2023-07-06T11:46:32.748Z,4.10
2023-07-06T11:49:16.220Z,4.00
2023-07-06T11:51:43.161Z,6.13
2023-07-06T11:54:20.716Z,2.77
2023-07-06T11:57:11.567Z,4.33
2023-07-06T11:59:41.288Z,3.90
2023-07-06T12:02:17.466Z,3.93
2023-07-06T12:04:47.675Z,3.07
2023-07-06T12:07:21.673Z,6.83
2023-07-06T12:09:48.934Z,4.20
2023-07-06T12:12:17.607Z,2.90
2023-07-06T12:14:45.472Z,8.93
2023-07-06T12:17:12.914Z,6.40
2023-07-06T12:19:42.729Z,2.80
2023-07-06T12:22:14.592Z,5.67
2023-07-06T12:24:41.107Z,3.40
2023-07-06T12:27:17.607Z,3.03
2023-07-06T12:29:46.635Z,6.30
2023-07-06T12:32:21.074Z,3.47
2023-07-06T12:34:53.321Z,3.73
2023-07-06T12:37:21.649Z,3.33
2023-07-06T12:39:49.576Z,3.57
2023-07-06T12:42:18.411Z,4.17
2023-07-06T12:44:45.842Z,3.57
2023-07-06T12:47:23.388Z,3.00
2023-07-06T12:49:56.891Z,3.00
2023-07-06T12:52:24.853Z,3.03
2023-07-06T12:54:55.008Z,4.37
2023-07-06T12:57:24.265Z,5.13
2023-07-06T12:59:56.181Z,3.40
2023-07-06T13:02:24.876Z,4.27
2023-07-06T13:04:52.011Z,3.30
2023-07-06T13:07:20.292Z,2.80
2023-07-06T13:09:49.354Z,3.20
2023-07-06T13:12:19.758Z,4.23
2023-07-06T13:14:47.598Z,3.97
2023-07-06T13:17:17.009Z,7.00
2023-07-06T13:19:46.994Z,2.60
2023-07-06T13:22:14.409Z,2.97
2023-07-06T13:24:42.190Z,3.27
2023-07-06T13:27:17.290Z,3.53
2023-07-06T13:29:44.036Z,3.30
2023-07-06T13:32:18.652Z,3.27
2023-07-06T13:34:47.601Z,4.00
2023-07-06T13:37:30.356Z,3.50
2023-07-06T13:40:01.227Z,2.90
2023-07-06T13:42:29.265Z,3.70
2023-07-06T13:44:56.475Z,3.67
2023-07-06T13:47:23.448Z,4.10
2023-07-06T13:49:54.039Z,3.47
2023-07-06T13:52:21.923Z,4.20
2023-07-06T13:54:48.924Z,2.87
2023-07-06T13:57:15.681Z,4.10
2023-07-06T13:59:42.152Z,3.80
2023-07-06T14:02:14.210Z,5.13
2023-07-06T14:04:42.699Z,3.87
2023-07-06T14:07:10.298Z,3.90
2023-07-06T14:09:36.835Z,3.33
2023-07-06T14:12:04.233Z,4.40
2023-07-06T14:14:31.140Z,5.67
2023-07-06T14:16:57.699Z,4.27
2023-07-06T14:19:24.209Z,3.40
2023-07-06T14:21:50.758Z,3.93
2023-07-06T14:24:20.456Z,3.00
2023-07-06T14:26:46.979Z,3.33
2023-07-06T14:29:27.872Z,3.53
2023-07-06T14:35:24.708Z,3.33
2023-07-06T14:37:52.354Z,2.80
2023-07-06T14:40:19.222Z,3.87
2023-07-06T14:42:53.470Z,3.23
2023-07-06T14:45:20.052Z,4.13
2023-07-06T14:47:46.615Z,3.53
2023-07-06T14:50:13.704Z,2.97
2023-07-06T14:52:40.221Z,3.77
2023-07-06T14:55:09.031Z,3.80
2023-07-06T14:57:36.093Z,2.63
2023-07-06T15:00:02.981Z,4.23
2023-07-06T15:02:29.599Z,3.47
2023-07-06T15:04:56.196Z,3.20
2023-07-06T15:07:22.878Z,3.13
2023-07-06T15:09:49.408Z,3.30
2023-07-06T15:12:16.004Z,3.00
2023-07-06T15:14:42.678Z,3.03
2023-07-06T15:17:10.349Z,3.40
2023-07-06T15:19:37.093Z,3.70
2023-07-06T15:22:03.806Z,3.13
2023-07-06T15:24:30.371Z,4.83
2023-07-06T15:26:57.081Z,3.00
2023-07-06T15:29:23.576Z,3.17
2023-07-06T15:31:50.112Z,4.60
2023-07-06T15:34:16.637Z,3.10
2023-07-06T15:36:43.108Z,3.50
2023-07-06T15:39:09.925Z,2.73
2023-07-06T15:41:36.689Z,3.27
2023-07-06T15:44:03.503Z,3.53
2023-07-06T15:46:31.043Z,3.13
2023-07-06T15:48:58.758Z,2.90
2023-07-06T15:51:25.899Z,4.53
2023-07-06T15:53:52.844Z,3.50
2023-07-06T15:56:20.474Z,5.13
2023-07-06T15:58:58.723Z,4.30
2023-07-06T16:01:25.526Z,5.20
2023-07-06T16:03:52.146Z,3.30
2023-07-06T16:06:22.877Z,5.73
2023-07-06T16:08:49.520Z,3.43
2023-07-06T16:11:26.133Z,4.83
2023-07-06T16:14:05.524Z,3.80
2023-07-06T16:16:39.193Z,3.70
2023-07-06T16:19:05.678Z,2.83
2023-07-06T16:21:32.313Z,4.20
2023-07-06T16:23:58.805Z,3.33
2023-07-06T16:26:25.592Z,3.10
2023-07-06T16:28:54.353Z,3.80
2023-07-06T16:31:22.254Z,3.20
2023-07-06T16:33:48.950Z,3.93
2023-07-06T16:36:15.672Z,2.87
2023-07-06T16:38:42.303Z,5.73
2023-07-06T16:41:11.327Z,3.13
2023-07-06T16:43:38.104Z,3.47
2023-07-06T16:46:05.009Z,3.87
2023-07-06T16:48:33.772Z,4.07
2023-07-06T16:51:02.407Z,5.33
2023-07-06T16:53:29.849Z,3.93
2023-07-06T16:55:56.705Z,3.90
2023-07-06T16:58:23.543Z,4.03
2023-07-06T17:00:50.095Z,4.80
2023-07-06T17:03:18.315Z,4.90
2023-07-06T17:05:47.116Z,4.07
2023-07-06T17:08:14.202Z,4.53
2023-07-06T17:10:40.996Z,4.43
2023-07-06T17:13:07.552Z,3.50
2023-07-06T17:15:34.167Z,4.00
2023-07-06T17:18:00.760Z,4.47
2023-07-06T17:20:27.456Z,3.50
2023-07-06T17:22:53.943Z,4.60
2023-07-06T17:25:20.522Z,4.33
2023-07-06T17:27:47.217Z,4.03
2023-07-06T17:30:13.801Z,3.73
2023-07-06T17:32:40.556Z,4.10
2023-07-06T17:35:07.549Z,4.10
2023-07-06T17:37:34.097Z,3.67
2023-07-06T17:40:00.916Z,3.10
2023-07-06T17:42:27.424Z,5.30
2023-07-06T17:44:54.009Z,4.03
2023-07-06T17:47:20.509Z,3.97
2023-07-06T17:49:47.042Z,4.90
2023-07-06T17:52:13.542Z,4.50
2023-07-06T17:54:40.091Z,4.77
2023-07-06T17:57:06.858Z,3.27
2023-07-06T17:59:33.365Z,3.50
2023-07-06T18:01:59.965Z,5.03
2023-07-06T18:04:27.681Z,4.37
2023-07-06T18:06:54.233Z,3.83
2023-07-06T18:09:20.733Z,3.70
2023-07-06T18:11:47.247Z,3.33
2023-07-06T18:14:14.351Z,3.73
2023-07-06T18:16:40.956Z,5.40
2023-07-06T18:19:07.528Z,6.30
2023-07-06T18:21:34.013Z,4.53
2023-07-06T18:24:00.544Z,5.70
2023-07-06T18:26:27.344Z,3.50
2023-07-06T18:28:53.888Z,3.50
2023-07-06T18:31:20.387Z,3.87
2023-07-06T18:33:46.906Z,5.10
2023-07-06T18:36:13.407Z,3.80
2023-07-06T18:38:40.111Z,4.07
2023-07-06T18:41:06.610Z,5.20
2023-07-06T18:43:33.168Z,4.33
2023-07-06T18:46:02.233Z,4.70
2023-07-06T18:48:29.322Z,5.17
2023-07-06T18:50:56.060Z,5.37
2023-07-06T18:53:32.539Z,5.00
2023-07-06T18:56:04.463Z,4.13
2023-07-06T18:58:30.952Z,6.73
2023-07-06T19:00:58.889Z,4.00
2023-07-06T19:03:25.630Z,5.00
2023-07-06T19:05:52.206Z,4.60
2023-07-06T19:08:18.751Z,3.73
2023-07-06T19:10:45.298Z,3.97
2023-07-06T19:13:12.123Z,4.00
2023-07-06T19:15:43.207Z,4.17
2023-07-06T19:18:09.841Z,7.20
2023-07-06T19:20:36.474Z,3.83
2023-07-06T19:23:03.019Z,5.13
2023-07-06T19:25:30.367Z,4.33
2023-07-06T19:27:56.909Z,5.33
2023-07-06T19:30:23.469Z,5.43
2023-07-06T19:32:50.018Z,4.60
2023-07-06T19:35:17.160Z,4.87
2023-07-06T19:37:43.608Z,5.00
2023-07-06T19:40:10.539Z,4.93
2023-07-06T19:42:37.013Z,3.70
2023-07-06T19:45:03.688Z,5.40
2023-07-06T19:47:30.294Z,4.87
2023-07-06T19:49:56.895Z,4.77
2023-07-06T19:52:23.405Z,6.70
2023-07-06T19:54:50.030Z,3.90
2023-07-06T19:57:19.722Z,4.10
2023-07-06T19:59:50.917Z,4.80
2023-07-06T20:02:17.469Z,5.10
2023-07-06T20:04:46.806Z,3.90
2023-07-06T20:07:15.445Z,6.27
2023-07-06T20:09:43.914Z,5.07
2023-07-06T20:12:10.566Z,5.03
2023-07-06T20:14:38.843Z,3.80
2023-07-06T20:17:05.486Z,5.43
2023-07-06T20:19:32.397Z,4.03
2023-07-06T20:21:58.922Z,5.60
2023-07-06T20:24:25.440Z,3.73
2023-07-06T20:26:52.258Z,5.40
2023-07-06T20:29:18.879Z,4.77
2023-07-06T20:31:45.400Z,5.20
2023-07-06T20:34:11.922Z,5.30
2023-07-06T20:36:38.389Z,4.70
2023-07-06T20:39:04.892Z,4.53
2023-07-06T20:41:31.408Z,8.37
2023-07-06T20:43:57.987Z,4.70
2023-07-06T20:46:24.495Z,6.33
2023-07-06T20:48:51.043Z,4.60
2023-07-06T20:51:17.535Z,6.10
2023-07-06T20:53:44.007Z,6.30
2023-07-06T20:56:10.482Z,5.00
2023-07-06T20:58:36.983Z,6.23
2023-07-06T21:01:03.542Z,5.97
2023-07-06T21:03:33.241Z,4.97
2023-07-06T21:06:00.813Z,5.30
2023-07-06T21:08:27.367Z,6.70
2023-07-06T21:10:53.841Z,5.07
2023-07-06T21:13:20.363Z,5.97
2023-07-06T21:15:47.520Z,6.53
2023-07-06T21:18:14.270Z,5.63
2023-07-06T21:20:41.520Z,7.27
2023-07-06T21:23:08.049Z,4.43
2023-07-06T21:25:34.599Z,5.63
2023-07-06T21:28:01.213Z,6.30
2023-07-06T21:30:27.793Z,4.10
2023-07-06T21:32:54.452Z,5.73
2023-07-06T21:35:21.016Z,5.00
2023-07-06T21:37:47.553Z,6.40
2023-07-06T21:40:14.099Z,6.53
2023-07-06T21:42:40.633Z,5.23
2023-07-06T21:45:07.362Z,5.67
2023-07-06T21:47:33.960Z,4.80
2023-07-06T21:50:00.483Z,4.83
2023-07-06T21:52:26.963Z,5.53
2023-07-06T21:54:53.493Z,5.80
2023-07-06T21:57:20.022Z,5.03
2023-07-06T21:59:46.515Z,7.80
2023-07-06T22:02:13.004Z,4.90
2023-07-06T22:04:39.563Z,4.80
2023-07-06T22:07:06.200Z,6.80
2023-07-06T22:09:32.732Z,7.17
2023-07-06T22:11:59.195Z,5.53
2023-07-06T22:14:25.805Z,5.20
2023-07-06T22:16:52.293Z,4.80
2023-07-06T22:19:18.781Z,5.03
2023-07-06T22:21:49.492Z,6.07
2023-07-06T22:24:16.896Z,6.00
2023-07-06T22:26:43.431Z,5.77
2023-07-06T22:29:09.948Z,5.30
2023-07-06T22:31:36.634Z,8.27
2023-07-06T22:34:03.708Z,5.57
2023-07-06T22:36:30.191Z,6.57
2023-07-06T22:38:56.700Z,6.63
2023-07-06T22:41:23.190Z,4.43
2023-07-06T22:43:49.736Z,5.67
2023-07-06T22:46:16.271Z,5.60
2023-07-06T22:48:42.776Z,5.73
2023-07-06T22:51:09.660Z,7.07
2023-07-06T22:53:36.335Z,6.17
2023-07-06T22:56:02.844Z,4.60
2023-07-06T22:58:29.513Z,5.93
2023-07-06T23:00:56.415Z,5.57
2023-07-06T23:03:23.374Z,6.97
2023-07-06T23:05:50.099Z,6.87
2023-07-06T23:08:16.653Z,6.37
2023-07-06T23:10:45.119Z,8.10
2023-07-06T23:13:12.219Z,7.63
2023-07-06T23:15:38.692Z,5.77
2023-07-06T23:18:05.421Z,6.73
2023-07-06T23:20:33.053Z,6.63
2023-07-06T23:22:59.873Z,6.47
2023-07-06T23:25:33.525Z,6.67
2023-07-06T23:28:09.194Z,5.50
2023-07-06T23:30:38.472Z,6.93
2023-07-06T23:33:10.158Z,6.10
2023-07-06T23:35:43.371Z,5.70
2023-07-06T23:38:13.220Z,7.40
2023-07-06T23:40:41.162Z,7.57
2023-07-06T23:43:07.994Z,8.17
2023-07-06T23:45:34.506Z,9.23
2023-07-06T23:48:01.591Z,7.40
2023-07-06T23:50:28.119Z,8.73
2023-07-06T23:52:54.690Z,6.60
2023-07-06T23:55:21.245Z,6.97
2023-07-06T23:57:47.725Z,7.30
